Time,TemperatureF,DewpointF,PressureIn,WindDirection,WindDirectionDegrees,WindSpeedMPH,WindSpeedGustMPH,Humidity,HourlyPrecipIn,Conditions,Clouds,dailyrainin,SoftwareType,DateUTC
2013-03-27 00:00:00,32.9,31.6,29.66,NW,311,7.0,7.0,95,0.00,,,0.00,Wunderground v.1.15,2013-03-27 04:00:00,
2013-03-27 00:10:00,32.9,31.6,29.67,NW,313,6.0,6.0,95,0.00,,,0.00,Wunderground v.1.15,2013-03-27 04:10:00,
2013-03-27 00:20:00,32.9,31.6,29.67,NW,312,6.0,6.0,95,0.00,,,0.00,Wunderground v.1.15,2013-03-27 04:20:00,
2013-03-27 00:30:00,32.8,31.5,29.67,NW,319,6.0,9.0,95,0.00,,,0.00,Wunderground v.1.15,2013-03-27 04:30:00,
2013-03-27 00:40:00,32.8,31.5,29.67,WNW,300,6.0,9.0,95,0.00,,,0.00,Wunderground v.1.15,2013-03-27 04:40:00,
2013-03-27 00:50:00,32.8,31.5,29.67,NW,313,5.0,6.0,95,0.00,,,0.00,Wunderground v.1.15,2013-03-27 04:50:00,
2013-03-27 01:00:00,32.8,31.5,29.67,NNW,330,5.0,5.0,95,0.00,,,0.00,Wunderground v.1.15,2013-03-27 05:00:00,
2013-03-27 01:10:00,32.7,31.4,29.67,NNW,331,5.0,7.0,95,0.00,,,0.00,Wunderground v.1.15,2013-03-27 05:10:00,
2013-03-27 01:20:00,32.7,31.4,29.67,NW,313,5.0,7.0,95,0.00,,,0.00,Wunderground v.1.15,2013-03-27 05:20:00,
2013-03-27 01:30:00,32.7,31.4,29.67,NNW,335,5.0,5.0,95,0.00,,,0.00,Wunderground v.1.15,2013-03-27 05:30:00,
2013-03-27 01:40:00,32.7,31.7,29.68,NNW,338,6.0,6.0,96,0.00,,,0.00,Wunderground v.1.15,2013-03-27 05:40:00,
2013-03-27 01:50:00,32.7,31.7,29.68,NNW,329,6.0,6.0,96,0.00,,,0.00,Wunderground v.1.15,2013-03-27 05:50:00,
2013-03-27 02:00:00,32.6,31.6,29.67,NNW,331,6.0,6.0,96,0.00,,,0.00,Wunderground v.1.15,2013-03-27 06:00:00,
2013-03-27 02:10:00,32.6,31.6,29.67,NW,321,6.0,9.0,96,0.00,,,0.00,Wunderground v.1.15,2013-03-27 06:10:00,
2013-03-27 02:20:00,32.7,31.7,29.67,NNW,334,5.0,5.0,96,0.00,,,0.00,Wunderground v.1.15,2013-03-27 06:20:00,
2013-03-27 02:30:00,32.7,31.7,29.67,NNW,340,6.0,6.0,96,0.00,,,0.00,Wunderground v.1.15,2013-03-27 06:30:00,
2013-03-27 02:40:00,32.7,31.7,29.67,NNW,336,6.0,6.0,96,0.00,,,0.00,Wunderground v.1.15,2013-03-27 06:40:00,
2013-03-27 02:50:00,32.7,31.7,29.67,NW,321,6.0,6.0,96,0.00,,,0.00,Wunderground v.1.15,2013-03-27 06:50:00,
2013-03-27 03:00:00,32.7,31.7,29.68,NNW,332,6.0,6.0,96,0.00,,,0.00,Wunderground v.1.15,2013-03-27 07:00:00,
2013-03-27 03:10:00,32.7,31.7,29.68,NNW,338,6.0,6.0,96,0.00,,,0.00,Wunderground v.1.15,2013-03-27 07:10:00,
2013-03-27 03:20:00,32.7,31.7,29.68,North,355,7.0,8.0,96,0.00,,,0.00,Wunderground v.1.15,2013-03-27 07:20:00,
2013-03-27 03:30:00,32.7,31.7,29.68,North,355,7.0,7.0,96,0.00,,,0.00,Wunderground v.1.15,2013-03-27 07:30:00,
2013-03-27 03:40:00,32.7,31.7,29.68,North,355,6.0,6.0,96,0.00,,,0.00,Wunderground v.1.15,2013-03-27 07:40:00,
2013-03-27 03:50:00,32.7,31.7,29.68,North,355,6.0,10.0,96,0.00,,,0.00,Wunderground v.1.15,2013-03-27 07:50:00,
2013-03-27 04:00:00,32.7,31.7,29.68,NW,326,5.0,5.0,96,0.00,,,0.00,Wunderground v.1.15,2013-03-27 08:00:00,
2013-03-27 04:10:00,32.8,31.8,29.68,NNW,336,6.0,7.0,96,0.00,,,0.00,Wunderground v.1.15,2013-03-27 08:10:00,
2013-03-27 04:20:00,32.8,31.8,29.68,NNW,344,5.0,5.0,96,0.00,,,0.00,Wunderground v.1.15,2013-03-27 08:20:00,
2013-03-27 04:30:00,32.8,31.8,29.69,NNW,341,6.0,8.0,96,0.00,,,0.00,Wunderground v.1.15,2013-03-27 08:30:00,
2013-03-27 04:40:00,32.7,31.7,29.69,NNW,341,5.0,5.0,96,0.00,,,0.00,Wunderground v.1.15,2013-03-27 08:40:00,
2013-03-27 04:50:00,32.8,31.8,29.69,NW,326,6.0,6.0,96,0.00,,,0.00,Wunderground v.1.15,2013-03-27 08:50:00,
2013-03-27 05:00:00,32.8,31.8,29.68,NW,326,5.0,7.0,96,0.00,,,0.00,Wunderground v.1.15,2013-03-27 09:00:00,
2013-03-27 05:10:00,32.8,31.8,29.69,NW,313,6.0,6.0,96,0.00,,,0.00,Wunderground v.1.15,2013-03-27 09:10:00,
2013-03-27 05:20:00,32.8,31.8,29.69,NNW,330,6.0,6.0,96,0.00,,,0.00,Wunderground v.1.15,2013-03-27 09:20:00,
2013-03-27 05:30:00,32.8,31.8,29.69,NW,325,5.0,5.0,96,0.00,,,0.00,Wunderground v.1.15,2013-03-27 09:30:00,
2013-03-27 05:40:00,32.8,31.8,29.70,NNW,334,5.0,5.0,96,0.00,,,0.00,Wunderground v.1.15,2013-03-27 09:40:00,
2013-03-27 05:50:00,32.8,31.8,29.70,North,355,4.0,4.0,96,0.00,,,0.00,Wunderground v.1.15,2013-03-27 09:50:00,
2013-03-27 06:00:00,32.8,31.8,29.70,NNW,329,4.0,5.0,96,0.00,,,0.00,Wunderground v.1.15,2013-03-27 10:00:00,
2013-03-27 06:10:00,32.8,31.8,29.71,NNW,348,5.0,5.0,96,0.00,,,0.00,Wunderground v.1.15,2013-03-27 10:10:00,
2013-03-27 06:20:00,32.9,31.9,29.72,North,360,4.0,4.0,96,0.00,,,0.00,Wunderground v.1.15,2013-03-27 10:20:00,
2013-03-27 06:30:00,32.9,31.9,29.72,NNW,333,4.0,4.0,96,0.00,,,0.00,Wunderground v.1.15,2013-03-27 10:30:00,
2013-03-27 06:40:00,32.9,31.9,29.72,NNW,341,5.0,5.0,96,0.00,,,0.00,Wunderground v.1.15,2013-03-27 10:40:00,
2013-03-27 06:50:00,33.0,32.0,29.72,NNW,348,4.0,4.0,96,0.00,,,0.00,Wunderground v.1.15,2013-03-27 10:50:00,
2013-03-27 07:00:00,33.1,32.1,29.72,NNW,336,4.0,4.0,96,0.00,,,0.00,Wunderground v.1.15,2013-03-27 11:00:00,
2013-03-27 07:10:00,33.2,32.2,29.72,NNW,327,4.0,4.0,96,0.00,,,0.00,Wunderground v.1.15,2013-03-27 11:10:00,
2013-03-27 07:20:00,33.2,32.2,29.73,NNW,348,4.0,6.0,96,0.00,,,0.00,Wunderground v.1.15,2013-03-27 11:20:00,
2013-03-27 07:30:00,33.3,32.3,29.73,NNW,341,4.0,4.0,96,0.00,,,0.00,Wunderground v.1.15,2013-03-27 11:30:00,
2013-03-27 07:40:00,33.4,32.4,29.73,NNW,342,4.0,5.0,96,0.00,,,0.00,Wunderground v.1.15,2013-03-27 11:40:00,
2013-03-27 07:50:00,33.4,32.4,29.74,NNW,343,4.0,4.0,96,0.00,,,0.00,Wunderground v.1.15,2013-03-27 11:50:00,
2013-03-27 08:00:00,33.6,32.8,29.74,NNW,333,4.0,4.0,97,0.00,,,0.00,Wunderground v.1.15,2013-03-27 12:00:00,
2013-03-27 08:10:00,33.7,32.9,29.75,NNW,338,4.0,4.0,97,0.00,,,0.00,Wunderground v.1.15,2013-03-27 12:10:00,
2013-03-27 08:20:00,33.8,33.0,29.75,NNW,327,3.0,3.0,97,0.00,,,0.00,Wunderground v.1.15,2013-03-27 12:20:00,
2013-03-27 08:30:00,33.9,32.9,29.75,NNW,339,4.0,4.0,96,0.00,,,0.00,Wunderground v.1.15,2013-03-27 12:30:00,
2013-03-27 08:40:00,34.0,33.0,29.75,NNW,334,5.0,5.0,96,0.00,,,0.00,Wunderground v.1.15,2013-03-27 12:40:00,
2013-03-27 08:50:00,34.2,33.2,29.75,NNW,342,4.0,4.0,96,0.00,,,0.01,Wunderground v.1.15,2013-03-27 12:50:00,
2013-03-27 09:00:00,34.3,33.3,29.75,NNW,334,5.0,5.0,96,0.05,,,0.02,Wunderground v.1.15,2013-03-27 13:00:00,
2013-03-27 09:10:00,34.4,33.4,29.75,NNW,333,5.0,5.0,96,0.04,,,0.02,Wunderground v.1.15,2013-03-27 13:10:00,
2013-03-27 09:20:00,34.4,33.4,29.76,NW,323,5.0,5.0,96,0.00,,,0.03,Wunderground v.1.15,2013-03-27 13:20:00,
2013-03-27 09:30:00,34.7,33.7,29.76,North,355,5.0,5.0,96,0.06,,,0.04,Wunderground v.1.15,2013-03-27 13:30:00,
2013-03-27 09:40:00,35.1,34.1,29.77,North,355,4.0,4.0,96,0.04,,,0.05,Wunderground v.1.15,2013-03-27 13:40:00,
2013-03-27 09:50:00,35.4,34.4,29.77,North,360,5.0,5.0,96,0.06,,,0.06,Wunderground v.1.15,2013-03-27 13:50:00,
2013-03-27 10:00:00,35.7,34.7,29.77,NNE,17,4.0,4.0,96,0.04,,,0.07,Wunderground v.1.15,2013-03-27 14:00:00,
2013-03-27 10:10:00,36.3,35.3,29.77,NE,46,2.0,2.0,96,0.06,,,0.08,Wunderground v.1.15,2013-03-27 14:10:00,
2013-03-27 10:20:00,37.0,35.7,29.77,NE,42,2.0,4.0,95,0.05,,,0.08,Wunderground v.1.15,2013-03-27 14:20:00,
2013-03-27 10:30:00,37.2,35.4,29.78,ENE,72,3.0,3.0,93,0.00,,,0.08,Wunderground v.1.15,2013-03-27 14:30:00,
2013-03-27 10:40:00,37.4,35.3,29.78,ESE,106,3.0,3.0,92,0.00,,,0.09,Wunderground v.1.15,2013-03-27 14:40:00,
2013-03-27 10:50:00,37.5,34.8,29.78,NE,55,5.0,5.0,90,0.00,,,0.09,Wunderground v.1.15,2013-03-27 14:50:00,
2013-03-27 11:00:00,37.7,35.0,29.79,ENE,69,5.0,5.0,90,0.00,,,0.09,Wunderground v.1.15,2013-03-27 15:00:00,
2013-03-27 11:10:00,37.5,34.6,29.79,ENE,71,6.0,6.0,89,0.00,,,0.09,Wunderground v.1.15,2013-03-27 15:10:00,
2013-03-27 11:20:00,37.5,34.8,29.79,ENE,66,4.0,4.0,90,0.00,,,0.09,Wunderground v.1.15,2013-03-27 15:20:00,
2013-03-27 11:30:00,37.7,34.2,29.79,ENE,74,6.0,6.0,87,0.00,,,0.09,Wunderground v.1.15,2013-03-27 15:30:00,
2013-03-27 11:40:00,38.0,34.8,29.79,NE,46,5.0,5.0,88,0.00,,,0.09,Wunderground v.1.15,2013-03-27 15:40:00,
2013-03-27 11:50:00,37.8,34.8,29.80,NE,55,3.0,3.0,89,0.00,,,0.09,Wunderground v.1.15,2013-03-27 15:50:00,
2013-03-27 12:00:00,37.8,34.8,29.80,ENE,61,3.0,3.0,89,0.00,,,0.09,Wunderground v.1.15,2013-03-27 16:00:00,
2013-03-27 12:10:00,37.9,34.9,29.80,NE,42,2.0,2.0,89,0.00,,,0.09,Wunderground v.1.15,2013-03-27 16:10:00,
2013-03-27 12:20:00,38.2,35.0,29.80,ENE,76,2.0,4.0,88,0.00,,,0.09,Wunderground v.1.15,2013-03-27 16:20:00,
2013-03-27 12:30:00,38.2,35.0,29.80,NE,45,4.0,4.0,88,0.00,,,0.09,Wunderground v.1.15,2013-03-27 16:30:00,
2013-03-27 12:40:00,38.2,35.0,29.80,NE,52,3.0,3.0,88,0.00,,,0.09,Wunderground v.1.15,2013-03-27 16:40:00,
2013-03-27 12:50:00,38.5,35.3,29.80,NE,51,2.0,2.0,88,0.00,,,0.09,Wunderground v.1.15,2013-03-27 16:50:00,
2013-03-27 13:00:00,39.0,35.7,29.80,NE,37,1.0,2.0,88,0.00,,,0.09,Wunderground v.1.15,2013-03-27 17:00:00,
2013-03-27 13:10:00,39.4,35.0,29.80,ENE,74,3.0,3.0,84,0.00,,,0.09,Wunderground v.1.15,2013-03-27 17:10:00,
2013-03-27 13:20:00,39.9,35.2,29.80,NE,43,2.0,2.0,83,0.00,,,0.09,Wunderground v.1.15,2013-03-27 17:20:00,
2013-03-27 13:30:00,40.5,35.4,29.81,ENE,78,1.0,3.0,82,0.00,,,0.09,Wunderground v.1.15,2013-03-27 17:30:00,
2013-03-27 13:40:00,40.5,35.7,29.80,East,82,2.0,2.0,83,0.00,,,0.09,Wunderground v.1.15,2013-03-27 17:40:00,
2013-03-27 13:50:00,40.7,35.6,29.81,NE,45,1.0,1.0,82,0.00,,,0.09,Wunderground v.1.15,2013-03-27 17:50:00,
2013-03-27 14:00:00,40.7,35.6,29.81,East,82,2.0,3.0,82,0.00,,,0.09,Wunderground v.1.15,2013-03-27 18:00:00,
2013-03-27 14:10:00,39.8,35.7,29.81,ENE,61,4.0,4.0,85,0.00,,,0.09,Wunderground v.1.15,2013-03-27 18:10:00,
2013-03-27 14:20:00,39.7,35.9,29.81,NNE,32,3.0,4.0,86,0.00,,,0.09,Wunderground v.1.15,2013-03-27 18:20:00,
2013-03-27 14:30:00,40.7,36.2,29.81,East,82,1.0,1.0,84,0.00,,,0.09,Wunderground v.1.15,2013-03-27 18:30:00,
2013-03-27 14:40:00,41.7,36.6,29.81,NE,49,1.0,4.0,82,0.00,,,0.09,Wunderground v.1.15,2013-03-27 18:40:00,
2013-03-27 14:50:00,42.2,36.2,29.81,ENE,57,2.0,2.0,79,0.00,,,0.09,Wunderground v.1.15,2013-03-27 18:50:00,
2013-03-27 15:00:00,42.9,35.9,29.81,NE,53,3.0,3.0,76,0.00,,,0.09,Wunderground v.1.15,2013-03-27 19:00:00,
2013-03-27 15:10:00,43.4,36.0,29.81,NNE,19,3.0,5.0,75,0.00,,,0.09,Wunderground v.1.15,2013-03-27 19:10:00,
2013-03-27 15:20:00,42.8,35.8,29.81,NNE,21,3.0,4.0,76,0.00,,,0.09,Wunderground v.1.15,2013-03-27 19:20:00,
2013-03-27 15:30:00,43.0,36.0,29.81,North,5,3.0,4.0,76,0.00,,,0.09,Wunderground v.1.15,2013-03-27 19:30:00,
2013-03-27 15:40:00,43.0,35.6,29.81,NNW,345,4.0,5.0,75,0.00,,,0.09,Wunderground v.1.15,2013-03-27 19:40:00,
2013-03-27 15:50:00,43.0,35.6,29.81,NNW,348,2.0,2.0,75,0.00,,,0.09,Wunderground v.1.15,2013-03-27 19:50:00,
2013-03-27 16:00:00,43.1,35.4,29.81,North,355,0.0,0.0,74,0.00,,,0.09,Wunderground v.1.15,2013-03-27 20:00:00,
2013-03-27 16:10:00,43.1,35.7,29.81,ENE,66,1.0,2.0,75,0.00,,,0.09,Wunderground v.1.15,2013-03-27 20:10:00,
2013-03-27 16:20:00,42.5,35.8,29.81,ENE,68,2.0,2.0,77,0.00,,,0.09,Wunderground v.1.15,2013-03-27 20:20:00,
2013-03-27 16:30:00,42.0,35.6,29.82,ENE,71,0.0,0.0,78,0.00,,,0.09,Wunderground v.1.15,2013-03-27 20:30:00,
2013-03-27 16:40:00,42.0,36.0,29.82,ENE,71,0.0,0.0,79,0.00,,,0.09,Wunderground v.1.15,2013-03-27 20:40:00,
2013-03-27 16:50:00,43.4,36.7,29.82,ENE,71,0.0,0.0,77,0.00,,,0.09,Wunderground v.1.15,2013-03-27 20:50:00,
2013-03-27 17:00:00,41.4,35.1,29.82,SSW,205,1.0,1.0,78,0.00,,,0.09,Wunderground v.1.15,2013-03-27 21:00:00,
2013-03-27 17:10:00,40.6,35.2,29.82,SSW,206,0.0,0.0,81,0.00,,,0.09,Wunderground v.1.15,2013-03-27 21:10:00,
2013-03-27 17:20:00,41.1,35.4,29.82,SSW,206,1.0,1.0,80,0.00,,,0.09,Wunderground v.1.15,2013-03-27 21:20:00,
2013-03-27 17:30:00,40.8,35.1,29.82,SSW,206,0.0,0.0,80,0.00,,,0.09,Wunderground v.1.15,2013-03-27 21:30:00,
2013-03-27 17:40:00,40.8,35.4,29.82,SSW,206,0.0,0.0,81,0.00,,,0.09,Wunderground v.1.15,2013-03-27 21:40:00,
2013-03-27 17:50:00,40.6,35.8,29.83,SSW,206,0.0,0.0,83,0.00,,,0.09,Wunderground v.1.15,2013-03-27 21:50:00,
2013-03-27 18:00:00,40.4,36.2,29.83,SSW,213,0.0,0.0,85,0.00,,,0.10,Wunderground v.1.15,2013-03-27 22:00:00,
2013-03-27 18:10:00,39.9,36.3,29.83,West,259,0.0,0.0,87,0.00,,,0.10,Wunderground v.1.15,2013-03-27 22:10:00,
2013-03-27 18:20:00,39.4,36.4,29.84,West,259,0.0,0.0,89,0.00,,,0.10,Wunderground v.1.15,2013-03-27 22:20:00,
2013-03-27 18:30:00,39.1,36.7,29.84,West,259,0.0,0.0,91,0.00,,,0.10,Wunderground v.1.15,2013-03-27 22:30:00,
2013-03-27 18:40:00,38.8,36.7,29.84,West,259,0.0,0.0,92,0.00,,,0.10,Wunderground v.1.15,2013-03-27 22:40:00,
2013-03-27 18:50:00,38.7,36.9,29.84,West,259,0.0,0.0,93,0.00,,,0.10,Wunderground v.1.15,2013-03-27 22:50:00,
2013-03-27 19:00:00,38.3,36.5,29.85,West,259,0.0,0.0,93,0.00,,,0.10,Wunderground v.1.15,2013-03-27 23:00:00,
2013-03-27 19:10:00,38.1,36.3,29.85,West,259,0.0,0.0,93,0.00,,,0.11,Wunderground v.1.15,2013-03-27 23:10:00,
2013-03-27 19:20:00,37.8,36.0,29.85,West,259,0.0,0.0,93,0.00,,,0.11,Wunderground v.1.15,2013-03-27 23:20:00,
2013-03-27 19:30:00,37.4,35.6,29.86,West,259,0.0,0.0,93,0.00,,,0.11,Wunderground v.1.15,2013-03-27 23:30:00,
2013-03-27 19:40:00,37.0,34.9,29.86,West,259,0.0,0.0,92,0.00,,,0.11,Wunderground v.1.15,2013-03-27 23:40:00,
2013-03-27 19:50:00,37.0,35.2,29.87,West,259,0.0,0.0,93,0.00,,,0.12,Wunderground v.1.15,2013-03-27 23:50:00,
2013-03-27 20:00:00,36.8,35.0,29.86,West,259,0.0,0.0,93,0.05,,,0.13,Wunderground v.1.15,2013-03-28 00:00:00,
2013-03-27 20:10:00,36.7,35.1,29.86,West,259,0.0,0.0,94,0.05,,,0.14,Wunderground v.1.15,2013-03-28 00:10:00,
2013-03-27 20:20:00,36.8,35.5,29.87,West,259,0.0,0.0,95,0.05,,,0.14,Wunderground v.1.15,2013-03-28 00:20:00,
2013-03-27 20:30:00,37.1,35.8,29.87,West,259,0.0,0.0,95,0.00,,,0.14,Wunderground v.1.15,2013-03-28 00:30:00,
2013-03-27 20:40:00,37.0,35.7,29.88,West,259,0.0,0.0,95,0.00,,,0.14,Wunderground v.1.15,2013-03-28 00:40:00,
2013-03-27 20:50:00,36.9,35.6,29.88,West,259,0.0,0.0,95,0.00,,,0.14,Wunderground v.1.15,2013-03-28 00:50:00,
2013-03-27 21:00:00,36.6,35.3,29.88,West,259,0.0,0.0,95,0.00,,,0.14,Wunderground v.1.15,2013-03-28 01:00:00,
2013-03-27 21:10:00,36.5,35.2,29.89,West,259,0.0,0.0,95,0.00,,,0.15,Wunderground v.1.15,2013-03-28 01:10:00,
2013-03-27 21:20:00,36.3,35.0,29.89,West,259,0.0,0.0,95,0.06,,,0.16,Wunderground v.1.15,2013-03-28 01:20:00,
2013-03-27 21:30:00,36.2,34.9,29.89,West,259,0.0,0.0,95,0.00,,,0.16,Wunderground v.1.15,2013-03-28 01:30:00,
2013-03-27 21:40:00,36.1,34.8,29.89,West,259,0.0,0.0,95,0.00,,,0.16,Wunderground v.1.15,2013-03-28 01:40:00,
2013-03-27 21:50:00,36.1,34.8,29.89,West,259,0.0,0.0,95,0.00,,,0.16,Wunderground v.1.15,2013-03-28 01:50:00,
2013-03-27 22:00:00,36.1,35.1,29.90,West,259,0.0,0.0,96,0.00,,,0.17,Wunderground v.1.15,2013-03-28 02:00:00,
2013-03-27 22:10:00,36.2,35.2,29.90,West,259,0.0,0.0,96,0.00,,,0.17,Wunderground v.1.15,2013-03-28 02:10:00,
2013-03-27 22:20:00,36.1,35.1,29.90,West,259,0.0,0.0,96,0.00,,,0.17,Wunderground v.1.15,2013-03-28 02:20:00,
2013-03-27 22:30:00,36.0,35.0,29.89,West,259,0.0,0.0,96,0.00,,,0.17,Wunderground v.1.15,2013-03-28 02:30:00,
2013-03-27 22:40:00,35.7,34.4,29.89,West,259,0.0,0.0,95,0.00,,,0.17,Wunderground v.1.15,2013-03-28 02:40:00,
2013-03-27 22:50:00,35.8,34.8,29.89,West,259,0.0,0.0,96,0.00,,,0.17,Wunderground v.1.15,2013-03-28 02:50:00,
2013-03-27 23:00:00,36.0,35.0,29.89,West,259,0.0,0.0,96,0.00,,,0.17,Wunderground v.1.15,2013-03-28 03:00:00,
2013-03-27 23:10:00,35.7,34.4,29.89,West,259,0.0,0.0,95,0.00,,,0.17,Wunderground v.1.15,2013-03-28 03:10:00,
2013-03-27 23:20:00,35.4,34.1,29.89,West,259,0.0,0.0,95,0.00,,,0.17,Wunderground v.1.15,2013-03-28 03:20:00,
2013-03-27 23:30:00,35.4,34.4,29.89,West,259,0.0,0.0,96,0.00,,,0.17,Wunderground v.1.15,2013-03-28 03:30:00,
2013-03-27 23:40:00,35.3,34.3,29.89,West,259,0.0,0.0,96,0.00,,,0.17,Wunderground v.1.15,2013-03-28 03:40:00,
2013-03-27 23:50:00,35.3,34.3,29.89,West,259,0.0,0.0,96,0.00,,,0.17,Wunderground v.1.15,2013-03-28 03:50:00,